createdAt,value
2018-05-04T00:00:53.254Z,4
2018-05-04T00:01:53.263Z,0
2018-05-04T00:02:53.052Z,0
2018-05-04T00:03:53.054Z,0
2018-05-04T00:04:53.341Z,0
2018-05-04T00:05:53.361Z,0
2018-05-04T00:06:53.385Z,4
2018-05-04T00:07:53.406Z,0
2018-05-04T00:08:53.426Z,0
2018-05-04T00:09:53.697Z,0
2018-05-04T00:10:53.527Z,0
2018-05-04T00:11:53.483Z,0
2018-05-04T00:12:53.764Z,0
2018-05-04T00:13:53.538Z,0
2018-05-04T00:14:53.845Z,0
2018-05-04T00:15:53.843Z,0
2018-05-04T00:16:53.862Z,0
2018-05-04T00:17:53.888Z,4
2018-05-04T00:18:53.905Z,0
2018-05-04T00:19:53.660Z,4
2018-05-04T00:20:53.680Z,0
2018-05-04T00:21:53.958Z,4
2018-05-04T00:22:53.721Z,4
2018-05-04T00:23:53.743Z,0
2018-05-04T00:24:53.761Z,0
2018-05-04T00:25:54.087Z,0
2018-05-04T00:26:53.883Z,0
2018-05-04T00:27:54.085Z,0
2018-05-04T00:28:53.623Z,0
2018-05-04T00:29:54.161Z,0
2018-05-04T00:30:54.184Z,0
2018-05-04T00:31:54.199Z,0
2018-05-04T00:32:54.223Z,0
2018-05-04T00:33:53.985Z,0
2018-05-04T00:34:54.012Z,0
2018-05-04T00:35:54.034Z,0
2018-05-04T00:36:54.311Z,0
2018-05-04T00:37:54.082Z,0
2018-05-04T00:38:54.115Z,0
2018-05-04T00:39:54.386Z,0
2018-05-04T00:40:53.941Z,0
2018-05-04T00:41:54.183Z,0
2018-05-04T00:42:54.195Z,0
2018-05-04T00:43:54.465Z,0
2018-05-04T00:44:54.242Z,0
2018-05-04T00:45:54.005Z,0
2018-05-04T00:46:54.548Z,0
2018-05-04T00:47:54.558Z,0
2018-05-04T00:48:54.648Z,0
2018-05-04T00:49:54.365Z,0
2018-05-04T00:50:54.632Z,0
2018-05-04T00:51:54.669Z,0
2018-05-04T00:52:54.512Z,0
2018-05-04T00:53:54.687Z,0
2018-05-04T00:54:54.725Z,0
2018-05-04T00:55:54.283Z,0
2018-05-04T00:56:54.511Z,0
2018-05-04T00:57:54.775Z,4
2018-05-04T00:58:54.794Z,4
2018-05-04T00:59:54.574Z,0
2018-05-04T01:00:54.599Z,4
2018-05-04T01:01:54.608Z,4
2018-05-04T01:02:54.633Z,0
2018-05-04T01:03:54.670Z,0
2018-05-04T01:04:54.687Z,0
2018-05-04T01:05:54.702Z,0
2018-05-04T01:06:54.967Z,4
2018-05-04T01:07:54.989Z,4
2018-05-04T01:08:54.760Z,0
2018-05-04T01:09:54.791Z,4
2018-05-04T01:10:56.331Z,0
2018-05-04T01:11:54.829Z,0
2018-05-04T01:12:54.862Z,0
2018-05-04T01:13:54.627Z,0
2018-05-04T01:14:55.171Z,0
2018-05-04T01:15:54.673Z,0
2018-05-04T01:16:55.403Z,0
2018-05-04T01:17:55.226Z,0
2018-05-04T01:18:55.252Z,0
2018-05-04T01:19:55.036Z,0
2018-05-04T01:20:54.782Z,0
2018-05-04T01:21:55.073Z,0
2018-05-04T01:22:55.341Z,0
2018-05-04T01:23:55.360Z,0
2018-05-04T01:24:55.375Z,0
2018-05-04T01:25:55.417Z,0
2018-05-04T01:26:55.150Z,0
2018-05-04T01:27:55.161Z,0
2018-05-04T01:28:55.432Z,0
2018-05-04T01:29:55.464Z,0
2018-05-04T01:30:55.490Z,0
2018-05-04T01:31:55.541Z,0
2018-05-04T01:32:55.319Z,0
2018-05-04T01:33:55.589Z,0
2018-05-04T01:34:55.608Z,0
2018-05-04T01:35:55.117Z,0
2018-05-04T01:36:55.656Z,0
2018-05-04T01:37:55.413Z,0
2018-05-04T01:38:55.688Z,0
2018-05-04T01:39:55.475Z,0
2018-05-04T01:40:55.316Z,0
2018-05-04T01:41:55.512Z,0
2018-05-04T01:42:55.792Z,0
2018-05-04T01:43:55.792Z,0
2018-05-04T01:44:55.567Z,0
2018-05-04T01:45:55.589Z,0
2018-05-04T01:46:55.608Z,0
2018-05-04T01:47:55.633Z,0
2018-05-04T01:48:55.648Z,0
2018-05-04T01:49:55.928Z,0
2018-05-04T01:50:55.952Z,0
2018-05-04T01:51:55.462Z,0
2018-05-04T01:52:56.006Z,0
2018-05-04T01:53:56.034Z,0
2018-05-04T01:54:55.551Z,0
2018-05-04T01:55:57.083Z,0
2018-05-04T01:56:55.589Z,0
2018-05-04T01:57:55.610Z,0
2018-05-04T01:58:56.135Z,0
2018-05-04T01:59:56.157Z,0
2018-05-04T02:00:56.187Z,0
2018-05-04T02:01:56.205Z,0
2018-05-04T02:02:56.230Z,0
2018-05-04T02:03:55.973Z,0
2018-05-04T02:04:56.256Z,0
2018-05-04T02:05:56.329Z,0
2018-05-04T02:06:56.312Z,0
2018-05-04T02:07:56.567Z,0
2018-05-04T02:08:56.344Z,0
2018-05-04T02:09:56.370Z,0
2018-05-04T02:10:56.393Z,0
2018-05-04T02:11:56.408Z,0
2018-05-04T02:12:56.180Z,0
2018-05-04T02:13:56.465Z,0
2018-05-04T02:14:56.234Z,0
2018-05-04T02:15:56.254Z,0
2018-05-04T02:16:56.280Z,0
2018-05-04T02:17:56.551Z,0
2018-05-04T02:18:56.066Z,0
2018-05-04T02:19:56.598Z,0
2018-05-04T02:20:56.618Z,0
2018-05-04T02:21:56.661Z,0
2018-05-04T02:22:56.633Z,0
2018-05-04T02:23:56.404Z,4
2018-05-04T02:24:56.431Z,0
2018-05-04T02:25:56.741Z,0
2018-05-04T02:26:56.517Z,4
2018-05-04T02:27:56.779Z,0
2018-05-04T02:28:56.548Z,0
2018-05-04T02:29:56.822Z,4
2018-05-04T02:30:56.592Z,4
2018-05-04T02:31:56.869Z,0
2018-05-04T02:32:56.865Z,0
2018-05-04T02:33:56.634Z,4
2018-05-04T02:34:56.666Z,4
2018-05-04T02:35:56.936Z,4
2018-05-04T02:36:56.702Z,4
2018-05-04T02:37:56.972Z,0
2018-05-04T02:38:56.756Z,0
2018-05-04T02:39:57.023Z,0
2018-05-04T02:40:56.798Z,0
2018-05-04T02:41:57.066Z,0
2018-05-04T02:42:56.607Z,0
2018-05-04T02:43:57.134Z,0
2018-05-04T02:44:56.900Z,0
2018-05-04T02:45:56.926Z,0
2018-05-04T02:46:57.212Z,0
2018-05-04T02:47:56.966Z,0
2018-05-04T02:48:57.001Z,0
2018-05-04T02:49:56.773Z,0
2018-05-04T02:50:57.049Z,0
2018-05-04T02:51:57.364Z,0
2018-05-04T02:52:57.326Z,0
2018-05-04T02:53:57.354Z,0
2018-05-04T02:54:56.863Z,0
2018-05-04T02:55:57.395Z,0
2018-05-04T02:56:56.907Z,4
2018-05-04T02:57:57.439Z,4
2018-05-04T02:58:57.212Z,4
2018-05-04T02:59:57.496Z,4
2018-05-04T03:00:56.994Z,0
2018-05-04T03:01:57.007Z,4
2018-05-04T03:02:57.277Z,4
2018-05-04T03:03:57.300Z,4
2018-05-04T03:04:57.573Z,0
2018-05-04T03:05:57.360Z,4
2018-05-04T03:06:57.529Z,4
2018-05-04T03:07:57.402Z,4
2018-05-04T03:08:57.427Z,4
2018-05-04T03:09:57.713Z,4
2018-05-04T03:10:57.732Z,4
2018-05-04T03:11:57.248Z,4
2018-05-04T03:12:57.781Z,4
2018-05-04T03:13:57.536Z,4
2018-05-04T03:14:57.561Z,4
2018-05-04T03:15:57.836Z,4
2018-05-04T03:16:57.597Z,4
2018-05-04T03:17:57.902Z,4
2018-05-04T03:18:57.647Z,4
2018-05-04T03:19:57.917Z,4
2018-05-04T03:20:57.940Z,4
2018-05-04T03:21:57.557Z,4
2018-05-04T03:22:57.732Z,4
2018-05-04T03:23:57.756Z,4
2018-05-04T03:24:58.024Z,8
2018-05-04T03:25:57.798Z,4
2018-05-04T03:26:57.571Z,4
2018-05-04T03:27:58.083Z,4
2018-05-04T03:28:58.094Z,4
2018-05-04T03:29:57.869Z,4
2018-05-04T03:30:57.892Z,8
2018-05-04T03:31:58.181Z,8
2018-05-04T03:32:57.944Z,4
2018-05-04T03:33:58.222Z,8
2018-05-04T03:34:58.247Z,8
2018-05-04T03:35:58.024Z,8
2018-05-04T03:36:58.345Z,12
2018-05-04T03:37:58.322Z,12
2018-05-04T03:38:58.162Z,12
2018-05-04T03:39:57.850Z,16
2018-05-04T03:40:58.113Z,16
2018-05-04T03:41:57.889Z,16
2018-05-04T03:42:58.474Z,20
2018-05-04T03:43:58.439Z,16
2018-05-04T03:44:58.468Z,20
2018-05-04T03:45:58.479Z,20
2018-05-04T03:46:58.500Z,24
2018-05-04T03:47:58.547Z,28
2018-05-04T03:48:58.290Z,28
2018-05-04T03:49:58.307Z,28
2018-05-04T03:50:58.590Z,32
2018-05-04T03:51:58.479Z,36
2018-05-04T03:52:58.373Z,32
2018-05-04T03:53:58.667Z,36
2018-05-04T03:54:58.418Z,40
2018-05-04T03:55:58.442Z,36
2018-05-04T03:56:58.719Z,40
2018-05-04T03:57:58.740Z,44
2018-05-04T03:58:58.785Z,52
2018-05-04T03:59:58.287Z,56
2018-05-04T04:00:58.556Z,52
2018-05-04T04:01:58.579Z,52
2018-05-04T04:02:58.856Z,56
2018-05-04T04:03:58.879Z,64
2018-05-04T04:04:58.895Z,68
2018-05-04T04:05:58.934Z,76
2018-05-04T04:06:58.993Z,84
2018-05-04T04:07:58.969Z,88
2018-05-04T04:08:58.730Z,96
2018-05-04T04:09:58.999Z,104
2018-05-04T04:10:59.035Z,124
2018-05-04T04:11:58.292Z,144
2018-05-04T04:12:59.074Z,168
2018-05-04T04:13:59.096Z,184
2018-05-04T04:14:58.863Z,192
2018-05-04T04:15:58.868Z,180
2018-05-04T04:16:59.171Z,168
2018-05-04T04:17:59.049Z,168
2018-05-04T04:18:59.202Z,180
2018-05-04T04:19:58.971Z,196
2018-05-04T04:20:59.249Z,196
2018-05-04T04:21:59.066Z,192
2018-05-04T04:22:59.288Z,188
2018-05-04T04:23:59.309Z,196
2018-05-04T04:24:59.097Z,212
2018-05-04T04:25:59.360Z,232
2018-05-04T04:26:59.405Z,252
2018-05-04T04:27:59.410Z,280
2018-05-04T04:28:59.163Z,308
2018-05-04T04:29:59.442Z,356
2018-05-04T04:30:59.211Z,428
2018-05-04T04:31:59.227Z,464
2018-05-04T04:32:59.500Z,464
2018-05-04T04:33:59.358Z,444
2018-05-04T04:34:59.538Z,436
2018-05-04T04:35:59.309Z,436
2018-05-04T04:36:59.636Z,452
2018-05-04T04:37:59.605Z,492
2018-05-04T04:38:59.853Z,552
2018-05-04T04:39:59.671Z,616
2018-05-04T04:40:59.679Z,660
2018-05-04T04:41:59.790Z,688
2018-05-04T04:42:59.709Z,708
2018-05-04T04:43:59.745Z,708
2018-05-04T04:44:59.786Z,704
2018-05-04T04:45:59.786Z,728
2018-05-04T04:46:59.680Z,788
2018-05-04T04:47:59.931Z,844
2018-05-04T04:48:59.856Z,908
2018-05-04T04:49:59.369Z,976
2018-05-04T04:50:59.647Z,1024
2018-05-04T04:51:59.922Z,1028
2018-05-04T04:52:59.942Z,1012
2018-05-04T04:53:59.969Z,1000
2018-05-04T04:54:59.981Z,988
2018-05-04T04:56:00.007Z,964
2018-05-04T04:56:59.772Z,956
2018-05-04T04:58:00.055Z,972
2018-05-04T04:58:59.823Z,984
2018-05-04T05:00:00.097Z,1008
2018-05-04T05:01:00.114Z,1060
2018-05-04T05:02:00.553Z,1160
2018-05-04T05:02:59.651Z,1272
2018-05-04T05:03:59.673Z,1308
2018-05-04T05:04:59.959Z,1268
2018-05-04T05:05:59.975Z,1228
2018-05-04T05:06:59.989Z,1188
2018-05-04T05:08:00.060Z,1152
2018-05-04T05:09:00.054Z,1132
2018-05-04T05:10:00.152Z,1148
2018-05-04T05:11:00.339Z,1180
2018-05-04T05:12:00.357Z,1208
2018-05-04T05:13:00.380Z,1248
2018-05-04T05:14:00.403Z,1296
2018-05-04T05:15:00.426Z,1316
2018-05-04T05:16:00.445Z,1312
2018-05-04T05:17:00.565Z,1336
2018-05-04T05:18:00.494Z,1348
2018-05-04T05:19:00.263Z,1320
2018-05-04T05:20:00.532Z,1300
2018-05-04T05:21:00.054Z,1308
2018-05-04T05:22:00.408Z,1308
2018-05-04T05:23:00.605Z,1296
2018-05-04T05:24:00.628Z,1272
2018-05-04T05:25:00.646Z,1268
2018-05-04T05:26:00.677Z,1232
2018-05-04T05:27:00.487Z,1188
2018-05-04T05:28:00.459Z,1204
2018-05-04T05:29:00.741Z,1260
2018-05-04T05:30:00.504Z,1340
2018-05-04T05:31:00.532Z,1424
2018-05-04T05:32:00.809Z,1472
2018-05-04T05:33:00.567Z,1388
2018-05-04T05:34:00.838Z,1320
2018-05-04T05:35:00.358Z,1384
2018-05-04T05:36:00.651Z,1588
2018-05-04T05:37:00.907Z,1804
2018-05-04T05:38:00.421Z,1880
2018-05-04T05:39:00.705Z,1896
2018-05-04T05:40:00.724Z,2008
2018-05-04T05:41:00.745Z,2168
2018-05-04T05:42:00.929Z,2360
2018-05-04T05:43:00.792Z,2388
2018-05-04T05:44:01.069Z,2340
2018-05-04T05:45:00.321Z,2272
2018-05-04T05:46:00.853Z,2112
2018-05-04T05:47:00.628Z,2088
2018-05-04T05:48:01.158Z,2060
2018-05-04T05:49:01.181Z,1984
2018-05-04T05:50:01.202Z,1980
2018-05-04T05:51:00.965Z,1960
2018-05-04T05:52:01.508Z,2020
2018-05-04T05:53:01.010Z,2140
2018-05-04T05:54:01.034Z,2188
2018-05-04T05:55:01.306Z,2320
2018-05-04T05:56:01.075Z,2628
2018-05-04T05:57:01.402Z,2972
2018-05-04T05:58:01.336Z,3360
2018-05-04T05:59:01.110Z,3592
2018-05-04T06:00:01.147Z,3808
2018-05-04T06:01:01.406Z,4320
2018-05-04T06:02:00.922Z,4916
2018-05-04T06:03:00.946Z,5044
2018-05-04T06:04:01.560Z,4564
2018-05-04T06:05:01.240Z,4200
2018-05-04T06:06:00.768Z,4120
2018-05-04T06:07:01.571Z,4240
2018-05-04T06:08:01.083Z,4168
2018-05-04T06:09:01.359Z,4028
2018-05-04T06:10:01.639Z,4108
2018-05-04T06:11:01.405Z,4144
2018-05-04T06:12:01.510Z,3928
2018-05-04T06:13:01.449Z,3668
2018-05-04T06:14:01.722Z,3464
2018-05-04T06:15:01.627Z,3304
2018-05-04T06:16:01.784Z,3244
2018-05-04T06:17:01.537Z,3116
2018-05-04T06:18:01.558Z,2928
2018-05-04T06:19:01.581Z,2696
2018-05-04T06:20:01.857Z,2532
2018-05-04T06:21:01.883Z,2516
2018-05-04T06:22:01.983Z,2548
2018-05-04T06:23:01.677Z,2536
2018-05-04T06:24:01.697Z,2532
2018-05-04T06:25:02.051Z,2528
2018-05-04T06:26:01.481Z,2664
2018-05-04T06:27:01.553Z,3004
2018-05-04T06:28:02.036Z,3260
2018-05-04T06:29:02.068Z,3248
2018-05-04T06:30:02.077Z,3136
2018-05-04T06:31:02.109Z,3012
2018-05-04T06:32:02.027Z,3020
2018-05-04T06:33:02.143Z,3068
2018-05-04T06:34:02.137Z,3040
2018-05-04T06:35:02.197Z,2988
2018-05-04T06:36:01.965Z,2932
2018-05-04T06:37:01.989Z,2928
2018-05-04T06:38:02.001Z,2948
2018-05-04T06:39:02.281Z,2856
2018-05-04T06:40:02.053Z,2804
2018-05-04T06:41:02.067Z,2796
2018-05-04T06:42:02.268Z,2836
2018-05-04T06:43:02.121Z,2864
2018-05-04T06:44:02.416Z,2816
2018-05-04T06:45:02.417Z,2784
2018-05-04T06:46:02.439Z,2844
2018-05-04T06:47:02.257Z,2944
2018-05-04T06:48:02.486Z,3080
2018-05-04T06:49:02.252Z,3192
2018-05-04T06:50:02.287Z,3172
2018-05-04T06:51:02.547Z,3140
2018-05-04T06:52:02.319Z,3164
2018-05-04T06:53:02.085Z,3320
2018-05-04T06:54:02.366Z,3592
2018-05-04T06:55:02.635Z,3768
2018-05-04T06:56:02.402Z,3808
2018-05-04T06:57:02.685Z,3788
2018-05-04T06:58:02.451Z,3812
2018-05-04T06:59:02.748Z,3844
2018-05-04T07:00:02.501Z,3756
2018-05-04T07:01:02.879Z,3580
2018-05-04T07:02:02.812Z,3548
2018-05-04T07:03:02.831Z,3584
2018-05-04T07:04:02.599Z,3656
2018-05-04T07:05:02.610Z,3836
2018-05-04T07:06:02.904Z,3884
2018-05-04T07:07:02.656Z,3840
2018-05-04T07:08:02.435Z,3876
2018-05-04T07:09:02.924Z,3832
2018-05-04T07:10:02.734Z,3800
2018-05-04T07:11:02.760Z,3852
2018-05-04T07:12:03.091Z,3768
2018-05-04T07:13:02.807Z,3796
2018-05-04T07:14:03.128Z,3924
2018-05-04T07:15:03.341Z,4204
2018-05-04T07:16:03.138Z,4292
2018-05-04T07:17:03.140Z,4172
2018-05-04T07:18:03.168Z,4156
2018-05-04T07:19:02.934Z,4256
2018-05-04T07:20:03.207Z,4668
2018-05-04T07:21:03.277Z,5228
2018-05-04T07:22:03.454Z,5512
2018-05-04T07:23:03.275Z,5712
2018-05-04T07:24:03.050Z,5908
2018-05-04T07:25:03.323Z,6396
2018-05-04T07:26:03.350Z,6604
2018-05-04T07:27:03.421Z,6200
2018-05-04T07:28:03.141Z,5840
2018-05-04T07:29:03.554Z,5980
2018-05-04T07:30:03.522Z,6344
2018-05-04T07:31:03.463Z,6752
2018-05-04T07:32:03.244Z,7036
2018-05-04T07:33:03.511Z,7104
2018-05-04T07:34:03.276Z,7008
2018-05-04T07:35:03.319Z,7188
2018-05-04T07:36:03.951Z,7564
2018-05-04T07:37:03.355Z,8064
2018-05-04T07:38:03.376Z,8596
2018-05-04T07:39:03.665Z,9072
2018-05-04T07:40:03.179Z,9972
2018-05-04T07:41:03.719Z,10644
2018-05-04T07:42:03.516Z,10092
2018-05-04T07:43:03.520Z,9152
2018-05-04T07:44:03.504Z,8608
2018-05-04T07:45:03.797Z,8400
2018-05-04T07:46:03.558Z,8620
2018-05-04T07:47:03.601Z,8748
2018-05-04T07:48:03.861Z,8472
2018-05-04T07:49:03.890Z,8368
2018-05-04T07:50:03.660Z,8424
2018-05-04T07:51:03.672Z,8212
2018-05-04T07:52:04.006Z,8000
2018-05-04T07:53:03.730Z,8416
2018-05-04T07:54:03.748Z,9040
2018-05-04T07:55:03.767Z,9684
2018-05-04T07:56:03.541Z,10108
2018-05-04T07:57:03.880Z,10476
2018-05-04T07:58:03.839Z,10964
2018-05-04T07:59:04.131Z,10492
2018-05-04T08:00:03.885Z,9604
2018-05-04T08:01:03.659Z,9252
2018-05-04T08:02:04.252Z,9688
2018-05-04T08:03:04.007Z,10112
2018-05-04T08:04:03.990Z,9852
2018-05-04T08:05:04.044Z,8808
2018-05-04T08:06:03.789Z,7816
2018-05-04T08:07:04.111Z,7368
2018-05-04T08:08:04.098Z,6644
2018-05-04T08:09:04.132Z,6408
2018-05-04T08:10:03.889Z,6048
2018-05-04T08:11:04.168Z,5816
2018-05-04T08:12:04.493Z,5776
2018-05-04T08:13:04.469Z,5368
2018-05-04T08:14:04.502Z,5480
2018-05-04T08:15:04.257Z,5676
2018-05-04T08:16:04.567Z,5860
2018-05-04T08:17:04.717Z,5824
2018-05-04T08:18:04.626Z,5680
2018-05-04T08:19:04.115Z,5340
2018-05-04T08:20:04.499Z,5024
2018-05-04T08:21:04.422Z,4892
2018-05-04T08:22:04.549Z,4624
2018-05-04T08:23:04.446Z,4464
2018-05-04T08:24:04.820Z,4476
2018-05-04T08:25:04.254Z,4492
2018-05-04T08:26:04.539Z,4440
2018-05-04T08:27:04.802Z,4280
2018-05-04T08:28:04.364Z,4260
2018-05-04T08:29:04.891Z,4336
2018-05-04T08:30:04.377Z,4268
2018-05-04T08:31:04.401Z,4292
2018-05-04T08:32:04.414Z,4348
2018-05-04T08:33:04.945Z,4316
2018-05-04T08:34:04.969Z,4284
2018-05-04T08:35:05.079Z,4432
2018-05-04T08:36:04.504Z,4296
2018-05-04T08:37:04.836Z,4252
2018-05-04T08:38:04.823Z,4432
2018-05-04T08:39:05.105Z,4672
2018-05-04T08:40:05.138Z,4784
2018-05-04T08:41:04.892Z,4904
2018-05-04T08:42:05.257Z,5040
2018-05-04T08:43:05.318Z,5284
2018-05-04T08:44:05.278Z,5348
2018-05-04T08:45:05.244Z,5388
2018-05-04T08:46:05.027Z,5412
2018-05-04T08:47:05.361Z,5372
2018-05-04T08:48:05.871Z,5336
2018-05-04T08:49:05.347Z,5220
2018-05-04T08:50:05.361Z,5260
2018-05-04T08:51:05.750Z,5500
2018-05-04T08:52:05.146Z,5752
2018-05-04T08:53:05.173Z,5772
2018-05-04T08:54:05.192Z,5696
2018-05-04T08:55:05.547Z,5840
2018-05-04T08:56:05.493Z,6056
2018-05-04T08:57:05.726Z,5892
2018-05-04T08:58:05.552Z,5676
2018-05-04T08:59:05.416Z,5920
2018-05-04T09:00:05.659Z,5880
2018-05-04T09:01:05.612Z,5620
2018-05-04T09:02:05.768Z,5792
2018-05-04T09:03:05.669Z,6056
2018-05-04T09:04:05.433Z,6000
2018-05-04T09:05:05.275Z,5836
2018-05-04T09:06:05.716Z,5980
2018-05-04T09:07:05.245Z,6084
2018-05-04T09:08:05.784Z,5976
2018-05-04T09:09:05.546Z,5984
2018-05-04T09:10:05.578Z,6016
2018-05-04T09:11:05.597Z,5820
2018-05-04T09:12:05.903Z,5308
2018-05-04T09:13:05.389Z,5076
2018-05-04T09:14:05.675Z,5212
2018-05-04T09:15:05.974Z,5272
2018-05-04T09:16:06.229Z,5372
2018-05-04T09:17:06.031Z,5468
2018-05-04T09:18:05.762Z,5560
2018-05-04T09:19:06.037Z,5552
2018-05-04T09:20:05.548Z,5712
2018-05-04T09:21:05.831Z,5760
2018-05-04T09:22:05.854Z,5728
2018-05-04T09:23:06.142Z,5584
2018-05-04T09:24:06.162Z,5320
2018-05-04T09:25:05.926Z,5000
2018-05-04T09:26:05.943Z,5216
2018-05-04T09:27:05.722Z,6292
2018-05-04T09:28:06.247Z,7364
2018-05-04T09:29:06.013Z,7948
2018-05-04T09:30:06.297Z,7824
2018-05-04T09:31:06.640Z,7464
2018-05-04T09:32:06.404Z,7400
2018-05-04T09:33:06.381Z,7140
2018-05-04T09:34:06.142Z,6260
2018-05-04T09:35:06.436Z,5952
2018-05-04T09:36:06.203Z,6036
2018-05-04T09:37:06.497Z,5816
2018-05-04T09:38:05.979Z,5532
2018-05-04T09:39:06.511Z,5280
2018-05-04T09:40:06.294Z,5332
2018-05-04T09:41:06.068Z,5284
2018-05-04T09:42:06.331Z,4964
2018-05-04T09:43:06.106Z,4728
2018-05-04T09:44:06.384Z,4800
2018-05-04T09:45:06.411Z,5168
2018-05-04T09:46:06.175Z,5608
2018-05-04T09:47:06.517Z,5744
2018-05-04T09:48:06.487Z,5508
2018-05-04T09:49:06.810Z,5316
2018-05-04T09:50:06.283Z,5144
2018-05-04T09:51:06.302Z,4888
2018-05-04T09:52:06.565Z,4592
2018-05-04T09:53:06.849Z,4348
2018-05-04T09:54:06.354Z,4228
2018-05-04T09:55:06.386Z,4060
2018-05-04T09:56:06.585Z,4072
2018-05-04T09:57:06.695Z,4268
2018-05-04T09:58:06.713Z,4308
2018-05-04T09:59:06.733Z,4244
2018-05-04T10:00:07.023Z,4304
2018-05-04T10:01:07.047Z,4412
2018-05-04T10:02:06.869Z,4396
2018-05-04T10:03:07.099Z,4588
2018-05-04T10:04:06.841Z,4836
2018-05-04T10:05:06.870Z,4700
2018-05-04T10:06:06.896Z,4356
2018-05-04T10:07:06.657Z,4168
2018-05-04T10:08:07.208Z,4020
2018-05-04T10:09:07.072Z,4180
2018-05-04T10:10:06.985Z,4400
2018-05-04T10:11:07.275Z,4404
2018-05-04T10:12:07.297Z,4452
2018-05-04T10:13:07.333Z,4340
2018-05-04T10:14:07.350Z,4456
2018-05-04T10:15:07.411Z,4564
2018-05-04T10:16:07.710Z,4704
2018-05-04T10:17:06.704Z,4860
2018-05-04T10:18:07.227Z,4824
2018-05-04T10:19:07.206Z,4960
2018-05-04T10:20:07.230Z,4780
2018-05-04T10:21:07.256Z,4636
2018-05-04T10:22:07.747Z,4356
2018-05-04T10:23:07.049Z,4112
2018-05-04T10:24:07.325Z,4176
2018-05-04T10:25:07.358Z,4312
2018-05-04T10:26:07.628Z,4520
2018-05-04T10:27:07.652Z,4972
2018-05-04T10:28:07.167Z,5472
2018-05-04T10:29:07.453Z,5512
2018-05-04T10:30:07.730Z,6084
2018-05-04T10:31:07.496Z,7772
2018-05-04T10:32:07.583Z,8388
2018-05-04T10:33:07.285Z,7684
2018-05-04T10:34:07.573Z,7832
2018-05-04T10:35:07.849Z,7976
2018-05-04T10:36:07.606Z,7492
2018-05-04T10:37:07.731Z,6524
2018-05-04T10:38:07.794Z,6368
2018-05-04T10:39:07.748Z,6356
2018-05-04T10:40:07.456Z,6176
2018-05-04T10:41:07.731Z,6324
2018-05-04T10:42:07.991Z,6460
2018-05-04T10:43:07.754Z,6900
2018-05-04T10:44:08.042Z,7064
2018-05-04T10:45:08.395Z,6812
2018-05-04T10:46:08.094Z,6352
2018-05-04T10:47:07.904Z,5832
2018-05-04T10:48:08.134Z,5728
2018-05-04T10:49:08.166Z,6364
2018-05-04T10:50:07.695Z,6980
2018-05-04T10:51:08.251Z,7212
2018-05-04T10:52:07.995Z,7700
2018-05-04T10:53:08.033Z,7648
2018-05-04T10:54:08.048Z,7112
2018-05-04T10:55:08.068Z,6376
2018-05-04T10:56:08.100Z,6128
2018-05-04T10:57:08.437Z,5840
2018-05-04T10:58:08.136Z,5784
2018-05-04T10:59:08.422Z,6252
2018-05-04T11:00:08.454Z,6648
2018-05-04T11:01:08.474Z,7448
2018-05-04T11:02:08.307Z,8304
2018-05-04T11:03:08.262Z,8084
2018-05-04T11:04:08.541Z,7892
2018-05-04T11:05:07.803Z,7596
2018-05-04T11:06:08.588Z,7564
2018-05-04T11:07:08.445Z,7344
2018-05-04T11:08:07.866Z,7432
2018-05-04T11:09:08.400Z,7944
2018-05-04T11:10:08.437Z,8796
2018-05-04T11:11:08.556Z,8476
2018-05-04T11:12:08.932Z,8680
2018-05-04T11:13:08.766Z,8336
2018-05-04T11:14:08.781Z,9044
2018-05-04T11:15:08.560Z,9240
2018-05-04T11:16:08.586Z,9028
2018-05-04T11:17:08.874Z,8784
2018-05-04T11:18:08.378Z,7232
2018-05-04T11:19:08.658Z,7608
2018-05-04T11:20:08.422Z,8424
2018-05-04T11:21:08.470Z,8592
2018-05-04T11:22:08.741Z,8652
2018-05-04T11:23:08.759Z,8616
2018-05-04T11:24:08.779Z,8108
2018-05-04T11:25:09.066Z,8232
2018-05-04T11:26:08.844Z,8632
2018-05-04T11:27:08.645Z,8304
2018-05-04T11:28:08.623Z,9572
2018-05-04T11:29:08.390Z,9880
2018-05-04T11:30:09.186Z,10492
2018-05-04T11:31:08.961Z,10560
2018-05-04T11:32:09.244Z,10700
2018-05-04T11:33:09.011Z,10076
2018-05-04T11:34:09.035Z,9160
2018-05-04T11:35:09.316Z,9132
2018-05-04T11:36:09.368Z,8644
2018-05-04T11:37:09.093Z,8260
2018-05-04T11:38:09.125Z,8320
2018-05-04T11:39:09.560Z,8492
2018-05-04T11:40:09.177Z,7932
2018-05-04T11:41:08.970Z,8064
2018-05-04T11:42:09.526Z,7892
2018-05-04T11:43:09.244Z,7592
2018-05-04T11:44:09.525Z,7608
2018-05-04T11:45:09.300Z,7676
2018-05-04T11:46:09.346Z,8152
2018-05-04T11:47:09.626Z,9232
2018-05-04T11:48:09.388Z,9560
2018-05-04T11:49:09.160Z,9956
2018-05-04T11:50:09.187Z,10548
2018-05-04T11:51:09.469Z,10460
2018-05-04T11:52:09.497Z,10572
2018-05-04T11:53:09.514Z,9904
2018-05-04T11:54:09.550Z,8776
2018-05-04T11:55:09.725Z,8720
2018-05-04T11:56:09.595Z,8892
2018-05-04T11:57:09.415Z,8448
2018-05-04T11:58:09.893Z,8032
2018-05-04T11:59:09.926Z,7668
2018-05-04T12:00:09.458Z,7668
2018-05-04T12:01:09.731Z,7496
2018-05-04T12:02:10.005Z,7524
2018-05-04T12:03:10.031Z,7324
2018-05-04T12:04:10.055Z,7180
2018-05-04T12:05:09.819Z,6584
2018-05-04T12:06:10.151Z,5984
2018-05-04T12:07:09.870Z,5804
2018-05-04T12:08:10.146Z,5856
2018-05-04T12:09:09.920Z,5920
2018-05-04T12:10:09.947Z,5916
2018-05-04T12:11:10.232Z,6168
2018-05-04T12:12:09.791Z,6792
2018-05-04T12:13:10.279Z,7100
2018-05-04T12:14:10.049Z,7208
2018-05-04T12:15:10.078Z,7092
2018-05-04T12:16:10.425Z,7160
2018-05-04T12:17:10.259Z,7004
2018-05-04T12:18:10.413Z,6984
2018-05-04T12:19:10.429Z,7248
2018-05-04T12:20:10.202Z,7260
2018-05-04T12:21:10.222Z,7224
2018-05-04T12:22:10.554Z,7704
2018-05-04T12:23:10.529Z,8276
2018-05-04T12:24:10.325Z,9072
2018-05-04T12:25:10.334Z,9076
2018-05-04T12:26:10.363Z,8856
2018-05-04T12:27:10.429Z,9144
2018-05-04T12:28:10.659Z,9188
2018-05-04T12:29:10.183Z,8108
2018-05-04T12:30:10.707Z,7856
2018-05-04T12:31:10.739Z,8608
2018-05-04T12:32:10.856Z,8820
2018-05-04T12:33:10.273Z,9364
2018-05-04T12:34:10.551Z,9456
2018-05-04T12:35:10.564Z,9084
2018-05-04T12:36:10.613Z,8880
2018-05-04T12:37:10.558Z,8468
2018-05-04T12:38:10.659Z,7968
2018-05-04T12:39:10.932Z,7788
2018-05-04T12:40:10.968Z,7392
2018-05-04T12:41:10.736Z,7160
2018-05-04T12:42:10.851Z,6908
2018-05-04T12:43:10.769Z,7176
2018-05-04T12:44:11.083Z,7464
2018-05-04T12:45:10.849Z,7688
2018-05-04T12:46:10.846Z,7824
2018-05-04T12:47:10.777Z,8500
2018-05-04T12:48:10.909Z,9088
2018-05-04T12:49:11.213Z,9376
2018-05-04T12:50:11.222Z,9388
2018-05-04T12:51:10.992Z,9524
2018-05-04T12:52:10.757Z,9720
2018-05-04T12:53:11.299Z,9996
2018-05-04T12:54:11.317Z,10524
2018-05-04T12:55:11.088Z,11248
2018-05-04T12:56:11.372Z,11460
2018-05-04T12:57:11.191Z,12028
2018-05-04T12:58:11.431Z,13932
2018-05-04T12:59:10.949Z,12996
2018-05-04T13:00:11.223Z,12076
2018-05-04T13:01:11.519Z,12836
2018-05-04T13:02:11.509Z,14572
2018-05-04T13:03:11.530Z,15192
2018-05-04T13:04:11.322Z,13776
2018-05-04T13:05:11.607Z,15840
2018-05-04T13:06:11.372Z,17440
2018-05-04T13:07:11.671Z,22624
2018-05-04T13:08:11.683Z,59840
2018-05-04T13:09:11.705Z,38496
2018-05-04T13:10:11.485Z,56800
2018-05-04T13:11:11.251Z,51360
2018-05-04T13:12:11.587Z,37472
2018-05-04T13:13:11.812Z,24320
2018-05-04T13:14:11.853Z,40544
2018-05-04T13:15:11.372Z,20640
2018-05-04T13:16:11.666Z,21024
2018-05-04T13:17:11.933Z,27040
2018-05-04T13:18:11.723Z,26176
2018-05-04T13:19:11.988Z,21152
2018-05-04T13:20:12.027Z,23520
2018-05-04T13:21:11.794Z,17664
2018-05-04T13:22:12.131Z,15456
2018-05-04T13:23:11.880Z,18144
2018-05-04T13:24:11.879Z,19616
2018-05-04T13:25:12.168Z,15144
2018-05-04T13:26:11.936Z,13328
2018-05-04T13:27:12.275Z,12388
2018-05-04T13:28:11.998Z,13296
2018-05-04T13:29:12.034Z,19680
2018-05-04T13:30:12.056Z,21344
2018-05-04T13:31:11.835Z,23520
2018-05-04T13:32:12.125Z,24864
2018-05-04T13:33:12.390Z,19776
2018-05-04T13:34:12.221Z,17856
2018-05-04T13:35:12.452Z,15868
2018-05-04T13:36:12.226Z,16544
2018-05-04T13:37:12.255Z,16448
2018-05-04T13:38:12.520Z,20448
2018-05-04T13:39:12.060Z,21184
2018-05-04T13:40:12.352Z,21344
2018-05-04T13:41:12.400Z,21536
2018-05-04T13:42:12.705Z,22624